Share

Mekinock, ND

Grand Forks Air Force Base (KRDR) Elev 912 ft | 47.96 °N, 97.40 °W | Change Station
Active Advisory: Flood Warning

Current weather conditions updated 56 minutes ago

Clear
Clear
20 °F
Feels Like 10 °F
N
8
Wind Variable Wind from North
Sunrise 6:36 AM
Sunset 8:23 PM
Moon Waning Gibbous

Today is forecast to be nearly the same temperature as yesterday.

Pressure 30.40 in
Visibility 10.0 miles
Clouds Clear
Windchill 10 °F
Dew Point 16 °F
Humidity 85%
Rainfall 0.00 in
Snow Depth Not available.
UV 0 out of 16
Pollen 8.00 out of 12
Air Quality Not available.
Flu Activity Sporadic
METAR KRDR 171058Z AUTO 36007KT 10SM CLR M07/M09 A3034 RMK AO2 SLP292 T10671088

More Conditions Fewer Conditions

Pressure 30.40 in
Visibility 10.0 miles
Clouds Clear
Windchill 10 °F
Dew Point 16 °F
Humidity 85%
Rainfall 0.00 in
Snow Depth Not available.
UV 0 out of 16
Pollen 8.00 out of 12
Air Quality Not available.
Flu Activity Sporadic
METAR KRDR 171058Z AUTO 36007KT 10SM CLR M07/M09 A3034 RMK AO2 SLP292 T10671088

More Conditions Fewer Conditions

10-Day Forecast

Almanac

Astronomy

Apr. 17, 2014 Rise Set
Actual Time 6:36 AM CDT 8:23 PM CDT
Civil Twilight 6:03 AM CDT 8:56 PM CDT
Nautical Twilight 5:23 AM CDT 9:36 PM CDT
Astronomical Twilight 4:39 AM CDT 10:21 PM CDT
Moon 11:19 PM CDT 8:01 AM CDT
Length of Visible Light 14h 52m
Length of Day
13h 46m
Tomorrow will be 3m 19s longer.
Waning Gibbous, 95% of the Moon is Illuminated
Today
Waning Gibbous
Apr 22
Last Quarter
Apr 29
New
May 6
First Quarter
May 14
Full

Today's Extremes

State Highs State Lows

Community

  • sunset from izmir, narlıdere
    sunset from izmir, narlıdere
  • Sunset over the Bay
    Sunset over the Bay
  • Sunrise Serenade
    Sunrise Serenade
  • symphony in blue....
    symphony in blue....
  • Dawn Surprise
    Dawn Surprise

WunderPhotos

Upload Photos

1,701,919 photos uploaded!

Nearby

Snow Depth

Station Depth Elevation
No new snow has been reported.

Coastal Water Temperatures

Place Temperature
No Stations Reporting

Earthquake Activity

City Distance Mag. Time & Date
No recent earthquake activity has been reported nearby.
Minimum magnitude displayed is 2.5.

Nearby Weather Stations

There are no personal weather stations in this area.

What do you think?

We're not finished. Please let us know what you like, what you don't like, and what you are still missing.